Terminal Aerodrome Forecast
Issued by NWS Duluth, MN

Home | Current Version | Previous Version | Text Only | Print | Product List | Glossary On
Versions: 1 2 3 4 5 6 7 8 9 10 11 12 13 14 15 16 17 18 19 20 21 22 23 24 25 26 27 28 29 30 31 32 33 34 35 36 37 38 39 40 41
000
FTUS43 KDLH 190600 AAB
TAFDLH
TAF AMD
KDLH 190622Z 1906/2006 16010KT P6SM SCT012 WS020/20040KT
      TEMPO 1906/1908 BKN010
     FM191400 20016G23KT 4SM BR VCSH OVC007
     FM191800 20015G28KT 4SM BR VCSH OVC025
     FM192300 21010KT P6SM -DZ BKN025
     FM200200 22009KT 2SM BR OVC003=

USA.gov is the U.S. government's official web portal to all federal, state and local government web resources and services.